Time;durP1;ratioP1;P1;durP2;ratioP2;P2;SDS_P1;SDS_P2;PMS_P1;PMS_P2;Temp;Humidity;BMP_temperature;BMP_pressure;BME280_temperature;BME280_humidity;BME280_pressure;Samples;Min_cycle;Max_cycle;Signal;HPM_P1;HPM_P2
2023/03/31 00:00:41;;;;;;;12.43;4.23;;;;;;;;;;5115665;28;20220;-82
2023/03/31 00:03:09;;;;;;;20.90;4.87;;;;;;;;;;5115899;28;20197;-82
2023/03/31 00:05:38;;;;;;;26.67;6.17;;;;;;;;;;5116076;28;20271;-82
2023/03/31 00:08:08;;;;;;;22.07;4.93;;;;;;;;;;5115645;28;20290;-82
2023/03/31 00:10:36;;;;;;;23.40;6.43;;;;;;;;;;5115766;28;20201;-82
2023/03/31 00:13:06;;;;;;;17.00;4.90;;;;;;;;;;5115424;28;20232;-82
2023/03/31 00:15:34;;;;;;;17.60;5.77;;;;;;;;;;5115565;28;20333;-82
2023/03/31 00:18:03;;;;;;;20.90;5.97;;;;;;;;;;5115540;28;20238;-82
2023/03/31 00:20:32;;;;;;;23.97;5.83;;;;;;;;;;5115194;28;20239;-82
2023/03/31 00:23:01;;;;;;;17.20;5.87;;;;;;;;;;5115674;28;20253;-82
2023/03/31 00:25:29;;;;;;;25.47;7.57;;;;;;;;;;5115432;28;20210;-82
2023/03/31 00:27:58;;;;;;;23.90;6.00;;;;;;;;;;5115489;28;20196;-82
2023/03/31 00:30:27;;;;;;;19.53;4.83;;;;;;;;;;5115402;28;20224;-83
2023/03/31 00:32:56;;;;;;;17.07;6.57;;;;;;;;;;5115390;28;20196;-82
2023/03/31 00:35:24;;;;;;;20.07;5.50;;;;;;;;;;5114148;27;20207;-82
2023/03/31 00:37:56;;;;;;;9.63;3.63;;;;;;;;;;5115384;28;20204;-82
2023/03/31 00:40:25;;;;;;;23.03;6.53;;;;;;;;;;5115389;28;20208;-83
2023/03/31 00:42:53;;;;;;;22.00;6.03;;;;;;;;;;5115196;28;20291;-82
2023/03/31 00:45:23;;;;;;;22.13;5.83;;;;;;;;;;5115221;28;20223;-83
2023/03/31 00:47:54;;;;;;;21.87;4.60;;;;;;;;;;5114872;28;20195;-82
2023/03/31 00:50:25;;;;;;;13.80;5.17;;;;;;;;;;5114956;28;20211;-82
2023/03/31 00:52:56;;;;;;;14.37;3.90;;;;;;;;;;5114932;28;20228;-82
2023/03/31 00:55:28;;;;;;;16.23;5.30;;;;;;;;;;5114770;28;20204;-82
2023/03/31 00:57:56;;;;;;;13.10;4.63;;;;;;;;;;5114775;28;20203;-83
2023/03/31 01:00:25;;;;;;;10.93;2.37;;;;;;;;;;5114666;28;20480;-83
2023/03/31 01:02:57;;;;;;;17.77;4.77;;;;;;;;;;5114889;28;20208;-83
2023/03/31 01:05:27;;;;;;;8.57;4.73;;;;;;;;;;5114635;28;20213;-83
2023/03/31 01:07:56;;;;;;;17.70;6.77;;;;;;;;;;5114633;28;20207;-82
2023/03/31 01:10:25;;;;;;;16.63;5.33;;;;;;;;;;5114543;28;20227;-82
2023/03/31 01:12:55;;;;;;;21.60;7.27;;;;;;;;;;5114554;28;20195;-82
2023/03/31 01:15:23;;;;;;;28.60;6.40;;;;;;;;;;5114536;28;20291;-82
2023/03/31 01:17:54;;;;;;;19.33;5.73;;;;;;;;;;5114104;28;20206;-82
2023/03/31 01:20:28;;;;;;;15.93;5.30;;;;;;;;;;5113975;28;20257;-82
2023/03/31 01:23:12;;;;;;;15.17;4.67;;;;;;;;;;5114236;28;20317;-82
2023/03/31 01:25:50;;;;;;;19.23;5.23;;;;;;;;;;5114179;28;20196;-82
2023/03/31 01:28:21;;;;;;;10.00;3.53;;;;;;;;;;5114157;28;20232;-82
2023/03/31 01:31:04;;;;;;;19.47;5.60;;;;;;;;;;5114233;28;20232;-82
2023/03/31 01:33:45;;;;;;;21.57;6.20;;;;;;;;;;5112172;28;20205;-82
2023/03/31 01:36:26;;;;;;;13.20;3.63;;;;;;;;;;5113985;28;20218;-82
2023/03/31 01:39:14;;;;;;;7.03;2.40;;;;;;;;;;5114252;28;20247;-82
2023/03/31 01:41:50;;;;;;;21.43;9.07;;;;;;;;;;5114015;28;20214;-82
2023/03/31 01:44:23;;;;;;;9.30;3.93;;;;;;;;;;5113952;28;20259;-82
2023/03/31 01:46:55;;;;;;;14.47;6.63;;;;;;;;;;5113640;28;20269;-82
2023/03/31 01:49:25;;;;;;;17.77;5.20;;;;;;;;;;5114164;28;20198;-82
2023/03/31 01:51:58;;;;;;;11.47;3.70;;;;;;;;;;5113820;28;20194;-82
2023/03/31 01:54:30;;;;;;;22.17;6.37;;;;;;;;;;5113863;28;20202;-81
2023/03/31 01:57:02;;;;;;;13.50;4.80;;;;;;;;;;5113463;28;20196;-81
2023/03/31 01:59:34;;;;;;;15.63;6.33;;;;;;;;;;5114041;28;20280;-81
2023/03/31 02:02:05;;;;;;;12.97;5.17;;;;;;;;;;5113341;28;20276;-81
2023/03/31 02:04:34;;;;;;;15.80;5.07;;;;;;;;;;5113478;28;20209;-81
2023/03/31 02:07:04;;;;;;;19.60;5.50;;;;;;;;;;5113342;28;20266;-81
2023/03/31 02:09:35;;;;;;;11.43;4.60;;;;;;;;;;5113156;28;20270;-81
2023/03/31 02:12:08;;;;;;;13.43;4.20;;;;;;;;;;5113615;28;20216;-81
2023/03/31 02:14:38;;;;;;;12.53;4.73;;;;;;;;;;5113792;28;20226;-81
2023/03/31 02:17:08;;;;;;;16.73;5.87;;;;;;;;;;5113197;28;20225;-82
2023/03/31 02:19:39;;;;;;;4.80;3.23;;;;;;;;;;5113251;28;20243;-82
2023/03/31 02:22:08;;;;;;;20.57;6.13;;;;;;;;;;5113277;28;20218;-82
2023/03/31 02:24:38;;;;;;;15.63;4.03;;;;;;;;;;5112979;28;20234;-82
2023/03/31 02:27:09;;;;;;;17.57;6.87;;;;;;;;;;5113303;28;20211;-82
2023/03/31 02:29:37;;;;;;;22.37;7.30;;;;;;;;;;5113273;28;20223;-82
2023/03/31 02:32:11;;;;;;;19.47;6.13;;;;;;;;;;5113364;28;20256;-81
2023/03/31 02:34:39;;;;;;;23.90;9.90;;;;;;;;;;5113496;28;20230;-82
2023/03/31 02:37:07;;;;;;;21.17;8.23;;;;;;;;;;5112869;28;20342;-82
2023/03/31 02:39:37;;;;;;;16.13;4.20;;;;;;;;;;5113042;28;20203;-81
2023/03/31 02:42:06;;;;;;;17.93;7.73;;;;;;;;;;5112962;28;20271;-81
2023/03/31 02:44:38;;;;;;;17.37;7.90;;;;;;;;;;5113176;28;20203;-81
2023/03/31 02:47:08;;;;;;;14.57;7.20;;;;;;;;;;5112964;28;20201;-81
2023/03/31 02:49:37;;;;;;;14.30;7.13;;;;;;;;;;5112951;28;20198;-81
2023/03/31 02:52:18;;;;;;;19.47;6.53;;;;;;;;;;5112761;28;20202;-81
2023/03/31 02:55:04;;;;;;;16.70;7.30;;;;;;;;;;5112910;28;20196;-81
2023/03/31 02:57:45;;;;;;;22.53;9.00;;;;;;;;;;5112819;28;20214;-81
2023/03/31 03:00:20;;;;;;;15.80;8.97;;;;;;;;;;5116314;28;20251;-81
2023/03/31 03:02:54;;;;;;;11.40;7.30;;;;;;;;;;5116996;28;20253;-81
2023/03/31 03:05:26;;;;;;;13.67;5.93;;;;;;;;;;5116747;28;20225;-81
2023/03/31 03:07:58;;;;;;;14.80;6.17;;;;;;;;;;5116990;28;20226;-81
2023/03/31 03:10:31;;;;;;;19.07;7.33;;;;;;;;;;5117120;28;20204;-81
2023/03/31 03:13:07;;;;;;;9.77;4.83;;;;;;;;;;5116800;27;20202;-81
2023/03/31 03:15:38;;;;;;;11.27;5.53;;;;;;;;;;5116617;28;20209;-82
2023/03/31 03:18:06;;;;;;;8.97;5.07;;;;;;;;;;5116860;28;20202;-82
2023/03/31 03:20:35;;;;;;;12.70;6.47;;;;;;;;;;5116658;28;20245;-82
2023/03/31 03:23:04;;;;;;;11.20;6.50;;;;;;;;;;5116430;28;20223;-82
2023/03/31 03:25:32;;;;;;;16.90;8.80;;;;;;;;;;5116795;28;20215;-83
2023/03/31 03:28:01;;;;;;;19.07;9.27;;;;;;;;;;5116320;28;20228;-83
2023/03/31 03:30:29;;;;;;;14.13;7.67;;;;;;;;;;5116386;27;20298;-83
2023/03/31 03:32:59;;;;;;;15.37;7.97;;;;;;;;;;5116338;28;20195;-83
2023/03/31 03:35:28;;;;;;;18.97;10.33;;;;;;;;;;5116650;28;20194;-83
2023/03/31 03:37:56;;;;;;;15.30;8.00;;;;;;;;;;5116171;28;20204;-83
2023/03/31 03:40:25;;;;;;;11.27;6.73;;;;;;;;;;5116182;28;20190;-83
2023/03/31 03:42:53;;;;;;;18.47;7.70;;;;;;;;;;5116305;28;20212;-83
2023/03/31 03:45:21;;;;;;;14.37;6.00;;;;;;;;;;5115869;28;20199;-83
2023/03/31 03:47:50;;;;;;;13.13;7.80;;;;;;;;;;5115880;28;20239;-83
2023/03/31 03:50:20;;;;;;;14.50;8.57;;;;;;;;;;5115823;28;20288;-83
2023/03/31 03:52:48;;;;;;;16.93;8.13;;;;;;;;;;5115933;28;20291;-85
2023/03/31 03:55:17;;;;;;;16.10;7.90;;;;;;;;;;5116014;28;20253;-85
2023/03/31 03:57:45;;;;;;;11.40;5.53;;;;;;;;;;5115715;28;20298;-85
2023/03/31 04:00:14;;;;;;;22.67;7.57;;;;;;;;;;5116175;28;20200;-85
2023/03/31 04:02:42;;;;;;;17.97;7.37;;;;;;;;;;5115716;28;20223;-83
2023/03/31 04:05:11;;;;;;;11.43;6.40;;;;;;;;;;5115845;28;20199;-83
2023/03/31 04:07:41;;;;;;;12.17;4.30;;;;;;;;;;5115633;28;20237;-83
2023/03/31 04:10:10;;;;;;;11.17;5.23;;;;;;;;;;5116019;28;20202;-83
2023/03/31 04:12:38;;;;;;;14.67;6.83;;;;;;;;;;5115520;28;20264;-83
2023/03/31 04:15:07;;;;;;;17.27;6.40;;;;;;;;;;5115534;28;20249;-82
2023/03/31 04:17:36;;;;;;;11.53;5.60;;;;;;;;;;5115447;28;20190;-83
2023/03/31 04:20:08;;;;;;;9.67;4.03;;;;;;;;;;5115009;28;20238;-83
2023/03/31 04:22:39;;;;;;;12.33;6.60;;;;;;;;;;5115149;28;20251;-83
2023/03/31 04:25:13;;;;;;;13.50;6.17;;;;;;;;;;5115332;28;20199;-83
2023/03/31 04:27:49;;;;;;;12.17;7.03;;;;;;;;;;5115447;28;20218;-83
2023/03/31 04:30:22;;;;;;;13.70;6.90;;;;;;;;;;5115077;28;20204;-83
2023/03/31 04:32:52;;;;;;;11.17;6.00;;;;;;;;;;5115227;28;20201;-83
2023/03/31 04:35:21;;;;;;;11.60;6.20;;;;;;;;;;5115185;28;20291;-83
2023/03/31 04:37:49;;;;;;;9.67;7.07;;;;;;;;;;5114992;28;20239;-82
2023/03/31 04:40:19;;;;;;;9.70;7.23;;;;;;;;;;5114865;28;20198;-83
2023/03/31 04:42:47;;;;;;;7.00;3.77;;;;;;;;;;5115156;28;20242;-83
2023/03/31 04:45:16;;;;;;;11.93;6.83;;;;;;;;;;5114717;28;20296;-83
2023/03/31 04:47:44;;;;;;;9.53;5.60;;;;;;;;;;5114705;28;20206;-83
2023/03/31 04:50:13;;;;;;;9.87;5.50;;;;;;;;;;5114879;28;20197;-84
2023/03/31 04:52:44;;;;;;;8.17;5.73;;;;;;;;;;5114694;28;20262;-83
2023/03/31 04:55:12;;;;;;;5.73;5.13;;;;;;;;;;5114951;28;20205;-83
2023/03/31 04:57:42;;;;;;;9.80;5.50;;;;;;;;;;5115233;28;20280;-83
2023/03/31 05:00:11;;;;;;;2.47;1.73;;;;;;;;;;5114509;28;20255;-84
2023/03/31 05:02:40;;;;;;;6.97;3.53;;;;;;;;;;5114359;28;20198;-84
2023/03/31 05:05:09;;;;;;;7.07;3.87;;;;;;;;;;5114709;28;20205;-84
2023/03/31 05:07:38;;;;;;;5.80;4.13;;;;;;;;;;5114411;28;20229;-84
2023/03/31 05:10:06;;;;;;;10.10;6.27;;;;;;;;;;5114468;28;20277;-84
2023/03/31 05:12:35;;;;;;;9.83;6.90;;;;;;;;;;5114220;28;20195;-84
2023/03/31 05:15:06;;;;;;;10.83;6.80;;;;;;;;;;5114285;28;20238;-83
2023/03/31 05:17:35;;;;;;;10.43;6.50;;;;;;;;;;5114241;28;20202;-84
2023/03/31 05:20:06;;;;;;;13.73;7.83;;;;;;;;;;5114125;28;20258;-83
2023/03/31 05:22:36;;;;;;;9.23;7.27;;;;;;;;;;5113768;28;20203;-83
2023/03/31 05:25:05;;;;;;;11.67;7.17;;;;;;;;;;5113806;28;20198;-83
2023/03/31 05:27:34;;;;;;;10.90;7.33;;;;;;;;;;5114163;28;20206;-83
2023/03/31 05:30:04;;;;;;;8.90;5.87;;;;;;;;;;5113634;28;20234;-84
2023/03/31 05:32:34;;;;;;;14.87;8.50;;;;;;;;;;5113991;28;20313;-84
2023/03/31 05:35:04;;;;;;;23.97;8.83;;;;;;;;;;5114019;28;20302;-82
2023/03/31 05:37:33;;;;;;;7.07;5.43;;;;;;;;;;5113661;28;20209;-83
2023/03/31 05:40:03;;;;;;;12.33;8.80;;;;;;;;;;5113616;28;20331;-84
2023/03/31 05:42:31;;;;;;;18.57;10.00;;;;;;;;;;5113831;28;20242;-83
2023/03/31 05:45:00;;;;;;;17.63;9.53;;;;;;;;;;5113143;28;20259;-83
2023/03/31 05:47:28;;;;;;;14.20;10.63;;;;;;;;;;5113606;28;20203;-83
2023/03/31 05:49:58;;;;;;;14.47;9.73;;;;;;;;;;5113817;28;20207;-83
2023/03/31 05:52:27;;;;;;;13.87;8.33;;;;;;;;;;5113609;28;20213;-84
2023/03/31 05:54:55;;;;;;;15.53;9.63;;;;;;;;;;5113682;28;20199;-84
2023/03/31 05:57:23;;;;;;;21.50;10.70;;;;;;;;;;5113382;28;20213;-84
2023/03/31 05:59:52;;;;;;;16.27;8.40;;;;;;;;;;5113807;28;20214;-83
2023/03/31 06:02:21;;;;;;;10.30;8.23;;;;;;;;;;5113386;28;20194;-83
2023/03/31 06:04:50;;;;;;;9.83;7.70;;;;;;;;;;5112729;28;20220;-83
2023/03/31 06:07:21;;;;;;;10.53;7.20;;;;;;;;;;5112974;28;20222;-83
2023/03/31 06:09:49;;;;;;;14.50;7.77;;;;;;;;;;5112855;28;20195;-83
2023/03/31 06:12:18;;;;;;;15.20;8.30;;;;;;;;;;5112966;28;20205;-82
2023/03/31 06:14:46;;;;;;;12.97;8.57;;;;;;;;;;5113013;28;20191;-82
2023/03/31 06:17:15;;;;;;;11.37;6.93;;;;;;;;;;5113092;28;20212;-83
2023/03/31 06:19:43;;;;;;;10.83;5.83;;;;;;;;;;5112582;28;20293;-83
2023/03/31 06:22:12;;;;;;;7.00;4.40;;;;;;;;;;5112584;28;20223;-83
2023/03/31 06:24:41;;;;;;;8.47;5.03;;;;;;;;;;5112752;28;20222;-83
2023/03/31 06:27:10;;;;;;;6.27;4.00;;;;;;;;;;5112976;28;20203;-83
2023/03/31 06:29:38;;;;;;;9.07;4.70;;;;;;;;;;5112654;28;20194;-83
2023/03/31 06:32:07;;;;;;;8.20;5.60;;;;;;;;;;5112940;28;20232;-83
2023/03/31 06:34:35;;;;;;;7.53;4.63;;;;;;;;;;5111970;28;20202;-82
2023/03/31 06:37:04;;;;;;;7.17;3.87;;;;;;;;;;5112363;28;20192;-82
2023/03/31 06:39:32;;;;;;;7.50;6.70;;;;;;;;;;5112539;28;20203;-83
2023/03/31 06:42:02;;;;;;;10.57;6.73;;;;;;;;;;5112645;28;20205;-82
2023/03/31 06:44:31;;;;;;;9.37;6.00;;;;;;;;;;5112284;28;20276;-82
2023/03/31 06:46:59;;;;;;;9.27;6.70;;;;;;;;;;5112808;28;20255;-82
2023/03/31 06:49:28;;;;;;;9.47;6.50;;;;;;;;;;5112840;28;20204;-82
2023/03/31 06:51:56;;;;;;;10.27;4.30;;;;;;;;;;5112310;28;20210;-82
2023/03/31 06:54:25;;;;;;;7.33;6.03;;;;;;;;;;5112409;28;20461;-82
2023/03/31 06:56:53;;;;;;;8.17;4.50;;;;;;;;;;5112859;28;20203;-82
2023/03/31 06:59:23;;;;;;;7.60;4.33;;;;;;;;;;5112621;28;20215;-82
2023/03/31 07:01:51;;;;;;;3.67;3.33;;;;;;;;;;5112433;28;20200;-82
2023/03/31 07:04:20;;;;;;;6.30;3.63;;;;;;;;;;5112451;28;20220;-82
2023/03/31 07:06:49;;;;;;;6.97;5.17;;;;;;;;;;5112730;28;20337;-83
2023/03/31 07:09:20;;;;;;;14.03;5.13;;;;;;;;;;5112630;28;20227;-82
2023/03/31 07:11:48;;;;;;;7.70;5.33;;;;;;;;;;5112834;28;20226;-82
2023/03/31 07:14:17;;;;;;;11.73;6.43;;;;;;;;;;5113091;28;20188;-82
2023/03/31 07:16:46;;;;;;;6.77;4.83;;;;;;;;;;5112626;28;20214;-82
2023/03/31 07:19:15;;;;;;;7.53;4.27;;;;;;;;;;5112447;28;20240;-82
2023/03/31 07:21:44;;;;;;;6.80;3.97;;;;;;;;;;5112113;28;20326;-82
2023/03/31 07:24:13;;;;;;;17.10;6.87;;;;;;;;;;5112364;28;20354;-82
2023/03/31 07:26:41;;;;;;;6.63;3.27;;;;;;;;;;5112401;28;20211;-82
2023/03/31 07:29:10;;;;;;;5.70;3.27;;;;;;;;;;5112350;28;20208;-82
2023/03/31 07:31:38;;;;;;;4.20;3.17;;;;;;;;;;5112497;28;20218;-82
2023/03/31 07:34:08;;;;;;;6.03;4.20;;;;;;;;;;5112478;28;20204;-82
2023/03/31 07:36:36;;;;;;;5.93;3.87;;;;;;;;;;5112156;28;20234;-82
2023/03/31 07:39:06;;;;;;;5.53;3.63;;;;;;;;;;5112586;28;20219;-82
2023/03/31 07:41:36;;;;;;;8.87;5.43;;;;;;;;;;5099826;28;20208;-83
2023/03/31 07:44:05;;;;;;;4.00;3.60;;;;;;;;;;5091931;28;20253;-83
2023/03/31 07:46:33;;;;;;;6.23;5.17;;;;;;;;;;5095352;28;20235;-83
2023/03/31 07:49:06;;;;;;;5.13;4.37;;;;;;;;;;5095242;28;20192;-83
2023/03/31 07:51:36;;;;;;;8.17;4.80;;;;;;;;;;5095354;28;20217;-83
2023/03/31 07:54:04;;;;;;;5.33;4.60;;;;;;;;;;5095581;28;20221;-83
2023/03/31 07:56:33;;;;;;;4.87;4.07;;;;;;;;;;5095352;28;20235;-83
2023/03/31 07:59:01;;;;;;;9.77;5.27;;;;;;;;;;5095492;28;20199;-82
2023/03/31 08:01:30;;;;;;;12.10;5.40;;;;;;;;;;5095739;28;20197;-82
2023/03/31 08:03:59;;;;;;;5.40;4.67;;;;;;;;;;5095494;28;20204;-82
2023/03/31 08:06:28;;;;;;;8.27;4.80;;;;;;;;;;5095097;28;20225;-82
2023/03/31 08:08:59;;;;;;;10.23;5.47;;;;;;;;;;5095151;28;20208;-83
2023/03/31 08:11:28;;;;;;;8.30;4.23;;;;;;;;;;5094941;28;20214;-83
2023/03/31 08:13:56;;;;;;;6.60;4.77;;;;;;;;;;5094963;28;20235;-83
2023/03/31 08:16:25;;;;;;;8.97;4.43;;;;;;;;;;5095016;28;20195;-83
2023/03/31 08:18:53;;;;;;;7.03;5.20;;;;;;;;;;5095170;28;20196;-82
2023/03/31 08:21:21;;;;;;;3.93;3.27;;;;;;;;;;5094904;28;20371;-83
2023/03/31 08:23:54;;;;;;;7.97;3.53;;;;;;;;;;5094854;28;20196;-83
2023/03/31 08:26:24;;;;;;;8.13;3.93;;;;;;;;;;5094690;28;20217;-83
2023/03/31 08:28:53;;;;;;;7.87;3.93;;;;;;;;;;5094670;28;20212;-83
2023/03/31 08:31:24;;;;;;;10.60;4.90;;;;;;;;;;5095126;28;20292;-83
2023/03/31 08:33:54;;;;;;;5.13;4.10;;;;;;;;;;5094732;28;20257;-82
2023/03/31 08:36:23;;;;;;;8.43;3.93;;;;;;;;;;5094801;28;20259;-82
2023/03/31 08:38:53;;;;;;;7.90;4.47;;;;;;;;;;5095312;28;20199;-83
2023/03/31 08:41:28;;;;;;;8.03;4.60;;;;;;;;;;5094943;28;20216;-82
2023/03/31 08:43:57;;;;;;;8.83;3.53;;;;;;;;;;5095864;28;20263;-83
2023/03/31 08:46:29;;;;;;;7.10;3.73;;;;;;;;;;5094628;28;20225;-82
2023/03/31 08:48:59;;;;;;;8.57;5.40;;;;;;;;;;5094792;28;20212;-82
2023/03/31 08:51:30;;;;;;;11.33;3.63;;;;;;;;;;5094685;28;20212;-83
2023/03/31 08:54:01;;;;;;;8.63;3.80;;;;;;;;;;5094819;28;20261;-82
2023/03/31 08:56:36;;;;;;;4.27;3.10;;;;;;;;;;5093528;28;20205;-83
2023/03/31 08:59:05;;;;;;;8.30;3.43;;;;;;;;;;5094282;28;20207;-81
2023/03/31 09:01:39;;;;;;;7.70;3.70;;;;;;;;;;5094625;28;20209;-81
2023/03/31 09:04:27;;;;;;;4.87;3.23;;;;;;;;;;5094506;28;20205;-82
2023/03/31 09:07:01;;;;;;;11.13;2.50;;;;;;;;;;5094092;28;20228;-81
2023/03/31 09:09:34;;;;;;;8.63;3.37;;;;;;;;;;5094536;28;20193;-82
2023/03/31 09:12:06;;;;;;;10.10;4.40;;;;;;;;;;5094352;28;20240;-82
2023/03/31 09:14:37;;;;;;;8.37;4.70;;;;;;;;;;5094586;28;20196;-81
2023/03/31 09:17:15;;;;;;;7.83;4.73;;;;;;;;;;5094053;28;20193;-81
2023/03/31 09:19:45;;;;;;;8.57;3.57;;;;;;;;;;5094084;28;20288;-81
2023/03/31 09:22:18;;;;;;;16.20;5.77;;;;;;;;;;5093388;28;20237;-81
2023/03/31 09:24:50;;;;;;;8.17;3.57;;;;;;;;;;5093887;28;20272;-81
2023/03/31 09:27:21;;;;;;;8.30;4.70;;;;;;;;;;5093661;28;20200;-81
2023/03/31 09:29:51;;;;;;;10.13;4.77;;;;;;;;;;5093406;28;20240;-81
2023/03/31 09:32:21;;;;;;;12.13;4.53;;;;;;;;;;5093782;28;20201;-81
2023/03/31 09:34:52;;;;;;;7.53;5.03;;;;;;;;;;5093953;28;20224;-81
2023/03/31 09:37:21;;;;;;;11.93;4.73;;;;;;;;;;5093814;28;20200;-81
2023/03/31 09:39:49;;;;;;;7.87;3.90;;;;;;;;;;5093168;28;20196;-81
2023/03/31 09:42:19;;;;;;;14.70;5.20;;;;;;;;;;5093551;28;20238;-81
2023/03/31 09:44:50;;;;;;;10.33;5.97;;;;;;;;;;5093244;28;20208;-81
2023/03/31 09:47:21;;;;;;;8.10;4.23;;;;;;;;;;5093137;28;20225;-81
2023/03/31 09:49:50;;;;;;;9.20;4.87;;;;;;;;;;5093673;28;20201;-81
2023/03/31 09:52:26;;;;;;;5.10;3.70;;;;;;;;;;5093322;28;20205;-81
2023/03/31 09:54:56;;;;;;;4.57;3.37;;;;;;;;;;5093256;28;20300;-81
2023/03/31 09:57:26;;;;;;;3.67;2.63;;;;;;;;;;5093277;28;20228;-81
2023/03/31 10:00:12;;;;;;;8.20;3.70;;;;;;;;;;5093572;28;20293;-81
2023/03/31 10:02:44;;;;;;;4.70;3.27;;;;;;;;;;5093320;28;20232;-81
2023/03/31 10:05:22;;;;;;;8.37;3.70;;;;;;;;;;5092758;28;20193;-81
2023/03/31 10:07:51;;;;;;;6.47;3.37;;;;;;;;;;5093196;28;20542;-81
2023/03/31 10:10:27;;;;;;;6.80;3.37;;;;;;;;;;5092614;28;20236;-81
2023/03/31 10:12:56;;;;;;;1.67;1.57;;;;;;;;;;5093162;28;20232;-82
2023/03/31 10:15:29;;;;;;;7.50;3.00;;;;;;;;;;5092663;28;20190;-81
2023/03/31 10:17:59;;;;;;;7.80;2.93;;;;;;;;;;5092807;28;20217;-82
2023/03/31 10:20:34;;;;;;;1.90;1.70;;;;;;;;;;5092528;28;20289;-81
2023/03/31 10:23:04;;;;;;;6.80;4.03;;;;;;;;;;5092978;28;20203;-81
2023/03/31 10:25:34;;;;;;;11.03;3.83;;;;;;;;;;5092925;28;20201;-82
2023/03/31 10:28:03;;;;;;;7.40;3.30;;;;;;;;;;5092518;28;20473;-81
2023/03/31 10:30:36;;;;;;;6.60;3.20;;;;;;;;;;5092948;28;20254;-81
2023/03/31 10:33:12;;;;;;;12.73;3.77;;;;;;;;;;5092940;28;20246;-81
2023/03/31 10:35:50;;;;;;;5.07;2.80;;;;;;;;;;5092344;28;20211;-81
2023/03/31 10:38:25;;;;;;;10.53;4.70;;;;;;;;;;5092883;28;20209;-81
2023/03/31 10:40:55;;;;;;;13.30;4.27;;;;;;;;;;5092483;28;20304;-82
2023/03/31 10:43:26;;;;;;;11.30;4.03;;;;;;;;;;5092118;28;20197;-82
2023/03/31 10:45:57;;;;;;;9.37;4.87;;;;;;;;;;5092380;28;20269;-82
2023/03/31 10:48:27;;;;;;;11.43;4.73;;;;;;;;;;5092475;28;20229;-82
2023/03/31 10:50:59;;;;;;;9.43;4.73;;;;;;;;;;5092340;28;20239;-82
2023/03/31 10:53:28;;;;;;;4.93;3.03;;;;;;;;;;5092674;28;20201;-82
2023/03/31 10:56:02;;;;;;;15.20;4.97;;;;;;;;;;5092387;28;20193;-82
2023/03/31 10:58:46;;;;;;;9.67;5.20;;;;;;;;;;5092656;28;20196;-82
2023/03/31 11:01:39;;;;;;;12.47;5.20;;;;;;;;;;5092352;28;20192;-82
2023/03/31 11:04:23;;;;;;;12.13;4.27;;;;;;;;;;5092448;28;20215;-82
2023/03/31 11:06:56;;;;;;;10.60;4.90;;;;;;;;;;5091876;28;20289;-81
2023/03/31 11:09:35;;;;;;;9.47;4.20;;;;;;;;;;5092070;28;20297;-82
2023/03/31 11:12:08;;;;;;;11.90;4.23;;;;;;;;;;5092109;28;20200;-82
2023/03/31 11:14:41;;;;;;;12.43;5.20;;;;;;;;;;5091647;28;20227;-82
2023/03/31 11:17:18;;;;;;;5.33;1.80;;;;;;;;;;5092209;28;20232;-82
2023/03/31 11:19:53;;;;;;;10.30;2.90;;;;;;;;;;5093241;28;20290;-82
2023/03/31 11:22:26;;;;;;;6.17;2.50;;;;;;;;;;5095556;28;20326;-82
2023/03/31 11:25:13;;;;;;;3.27;1.77;;;;;;;;;;5096152;28;20296;-82
2023/03/31 11:27:51;;;;;;;8.53;2.97;;;;;;;;;;5095580;28;20217;-81
2023/03/31 11:30:23;;;;;;;6.27;3.13;;;;;;;;;;5096137;28;20240;-82
2023/03/31 11:32:59;;;;;;;7.20;2.67;;;;;;;;;;5096195;28;20253;-81
2023/03/31 11:35:42;;;;;;;8.63;3.67;;;;;;;;;;5096150;28;20326;-82
2023/03/31 11:38:19;;;;;;;6.20;2.87;;;;;;;;;;5096115;28;20197;-81
2023/03/31 11:40:55;;;;;;;10.03;3.50;;;;;;;;;;5095672;28;20195;-81
2023/03/31 11:43:27;;;;;;;3.43;2.10;;;;;;;;;;5095501;28;20215;-82
2023/03/31 11:45:59;;;;;;;6.40;3.17;;;;;;;;;;5096186;28;20268;-82
2023/03/31 11:48:33;;;;;;;6.67;2.97;;;;;;;;;;5096338;28;20209;-82
2023/03/31 11:51:02;;;;;;;4.83;3.30;;;;;;;;;;5095692;28;20353;-82
2023/03/31 11:53:33;;;;;;;7.17;3.13;;;;;;;;;;5095920;28;20211;-81
2023/03/31 11:56:03;;;;;;;9.60;4.10;;;;;;;;;;5095526;28;20209;-82
2023/03/31 11:58:36;;;;;;;7.87;4.00;;;;;;;;;;5095865;28;20197;-81
2023/03/31 12:01:07;;;;;;;13.27;3.67;;;;;;;;;;5095118;28;20201;-81
2023/03/31 12:03:40;;;;;;;5.00;2.57;;;;;;;;;;5095677;28;20197;-82
2023/03/31 12:06:15;;;;;;;3.57;2.17;;;;;;;;;;5095415;28;20251;-81
2023/03/31 12:08:48;;;;;;;4.10;3.50;;;;;;;;;;5095438;28;20196;-81
2023/03/31 12:11:20;;;;;;;7.27;3.17;;;;;;;;;;5094836;28;20254;-81
2023/03/31 12:13:52;;;;;;;7.70;3.80;;;;;;;;;;5095461;28;20227;-81
2023/03/31 12:16:22;;;;;;;10.77;5.73;;;;;;;;;;5095275;28;20200;-81
2023/03/31 12:18:58;;;;;;;6.17;4.33;;;;;;;;;;5095331;28;20197;-81
2023/03/31 12:21:27;;;;;;;7.10;3.67;;;;;;;;;;5094791;28;20233;-81
2023/03/31 12:23:56;;;;;;;7.80;3.73;;;;;;;;;;5095037;28;20220;-81
2023/03/31 12:26:35;;;;;;;8.60;3.43;;;;;;;;;;5094400;28;20196;-80
2023/03/31 12:29:06;;;;;;;6.60;3.07;;;;;;;;;;5095063;28;20207;-81
2023/03/31 12:31:36;;;;;;;8.20;3.40;;;;;;;;;;5093656;28;20296;-81
2023/03/31 12:34:09;;;;;;;6.90;3.27;;;;;;;;;;5094924;28;20204;-81
2023/03/31 12:36:46;;;;;;;8.70;3.90;;;;;;;;;;5094517;28;20204;-81
2023/03/31 12:39:22;;;;;;;6.73;2.80;;;;;;;;;;5094571;28;20196;-81
2023/03/31 12:41:59;;;;;;;8.13;3.57;;;;;;;;;;5094484;28;20295;-81
2023/03/31 12:44:35;;;;;;;3.57;1.63;;;;;;;;;;5094463;28;20185;-81
2023/03/31 12:47:22;;;;;;;7.27;3.33;;;;;;;;;;5094418;28;20247;-81
2023/03/31 12:50:00;;;;;;;3.63;1.63;;;;;;;;;;5085206;28;20204;-81
2023/03/31 12:52:34;;;;;;;7.53;2.73;;;;;;;;;;5094332;28;20250;-81
2023/03/31 12:55:09;;;;;;;5.40;3.07;;;;;;;;;;5094350;28;20197;-81
2023/03/31 12:57:38;;;;;;;6.50;2.93;;;;;;;;;;5094273;28;20199;-81
2023/03/31 13:00:23;;;;;;;7.40;3.50;;;;;;;;;;5094419;28;20257;-81
2023/03/31 13:02:52;;;;;;;5.40;3.20;;;;;;;;;;5094804;28;20273;-81
2023/03/31 13:05:39;;;;;;;6.57;2.43;;;;;;;;;;5093938;28;20226;-81
2023/03/31 13:08:10;;;;;;;5.23;3.03;;;;;;;;;;5094283;28;20270;-81
2023/03/31 13:10:53;;;;;;;6.33;3.97;;;;;;;;;;5094836;28;20265;-81
2023/03/31 13:13:22;;;;;;;1.23;1.13;;;;;;;;;;5093916;28;20272;-82
2023/03/31 13:15:51;;;;;;;8.13;3.30;;;;;;;;;;5094303;28;20296;-82
2023/03/31 13:18:21;;;;;;;4.93;3.20;;;;;;;;;;5094316;28;20204;-81
2023/03/31 13:20:59;;;;;;;5.43;3.80;;;;;;;;;;5093937;28;20240;-81
2023/03/31 13:23:36;;;;;;;6.37;3.87;;;;;;;;;;5093113;28;20224;-82
2023/03/31 13:26:05;;;;;;;7.83;4.03;;;;;;;;;;5094211;28;20196;-81
2023/03/31 13:28:36;;;;;;;6.90;3.87;;;;;;;;;;5093924;28;20294;-82
2023/03/31 13:31:05;;;;;;;3.63;2.83;;;;;;;;;;5093808;28;20273;-82
2023/03/31 13:33:35;;;;;;;6.07;3.30;;;;;;;;;;5093931;28;20255;-82
2023/03/31 13:36:14;;;;;;;11.57;3.43;;;;;;;;;;5093418;28;20204;-81
2023/03/31 13:38:51;;;;;;;5.10;3.13;;;;;;;;;;5093779;28;20196;-82
2023/03/31 13:41:27;;;;;;;5.43;3.87;;;;;;;;;;5093645;28;20233;-81
2023/03/31 13:44:19;;;;;;;2.50;2.20;;;;;;;;;;5093135;28;20196;-82
2023/03/31 13:46:51;;;;;;;4.77;2.90;;;;;;;;;;5093937;28;20205;-82
2023/03/31 13:49:34;;;;;;;6.47;3.80;;;;;;;;;;5093608;28;20255;-82
2023/03/31 13:52:04;;;;;;;4.37;3.10;;;;;;;;;;5091820;28;20237;-82
2023/03/31 13:54:53;;;;;;;6.77;3.27;;;;;;;;;;5093382;28;20201;-82
2023/03/31 13:57:45;;;;;;;2.97;2.40;;;;;;;;;;5088463;28;20243;-82
2023/03/31 14:00:27;;;;;;;6.07;2.40;;;;;;;;;;5093456;28;20205;-82
2023/03/31 14:03:00;;;;;;;4.83;2.93;;;;;;;;;;5092974;28;20188;-82
2023/03/31 14:05:31;;;;;;;1.67;1.40;;;;;;;;;;5093143;28;20236;-82
2023/03/31 14:08:01;;;;;;;3.30;1.97;;;;;;;;;;5093175;28;20220;-82
2023/03/31 14:10:31;;;;;;;4.07;2.07;;;;;;;;;;5093183;28;20296;-82
2023/03/31 14:13:09;;;;;;;4.17;2.87;;;;;;;;;;5093257;28;20535;-81
2023/03/31 14:15:38;;;;;;;3.83;1.80;;;;;;;;;;5093119;28;20192;-82
2023/03/31 14:18:07;;;;;;;2.50;2.30;;;;;;;;;;5092973;28;20207;-82
2023/03/31 14:20:53;;;;;;;3.77;2.87;;;;;;;;;;5092953;28;20231;-82
2023/03/31 14:23:27;;;;;;;4.80;2.77;;;;;;;;;;5093200;28;20228;-82
2023/03/31 14:26:00;;;;;;;4.73;2.87;;;;;;;;;;5093439;28;20208;-83
2023/03/31 14:28:45;;;;;;;3.10;2.40;;;;;;;;;;5093038;28;20211;-83
2023/03/31 14:31:20;;;;;;;4.10;2.47;;;;;;;;;;5093185;28;20296;-83
2023/03/31 14:33:55;;;;;;;5.80;3.67;;;;;;;;;;5092605;28;20200;-84
2023/03/31 14:36:29;;;;;;;5.10;3.33;;;;;;;;;;5092520;28;20253;-85
2023/03/31 14:39:03;;;;;;;2.10;1.43;;;;;;;;;;5092331;28;20194;-85
2023/03/31 14:41:31;;;;;;;3.60;2.30;;;;;;;;;;5092951;28;20200;-85
2023/03/31 14:44:03;;;;;;;4.63;2.37;;;;;;;;;;5092270;28;20291;-85
2023/03/31 14:46:32;;;;;;;4.23;2.63;;;;;;;;;;5092633;28;20224;-85
2023/03/31 14:49:06;;;;;;;2.97;2.70;;;;;;;;;;5092390;28;20215;-85
2023/03/31 14:51:35;;;;;;;3.40;2.20;;;;;;;;;;5092601;28;20205;-85
2023/03/31 14:54:03;;;;;;;5.20;2.90;;;;;;;;;;5091867;28;20205;-85
2023/03/31 14:56:35;;;;;;;3.93;2.80;;;;;;;;;;5092610;28;20204;-85
2023/03/31 14:59:06;;;;;;;5.73;3.63;;;;;;;;;;5092234;28;20203;-83
2023/03/31 15:01:36;;;;;;;4.87;2.77;;;;;;;;;;5092278;28;20200;-83